Time;durP1;ratioP1;P1;durP2;ratioP2;P2;SDS_P1;SDS_P2;PMS_P1;PMS_P2;Temp;Humidity;BMP_temperature;BMP_pressure;BME280_temperature;BME280_humidity;BME280_pressure;Samples;Min_cycle;Max_cycle;Signal;HPM_P1;HPM_P2
2022/01/09 00:01:25;;;;;;;;;;;4.00;99.90;;;;;;5015074;28;20282;-76
2022/01/09 00:03:51;;;;;;;;;;;4.00;99.90;;;;;;5014403;28;19975;-76
2022/01/09 00:06:16;;;;;;;;;;;4.00;99.90;;;;;;5014575;28;19921;-76
2022/01/09 00:08:45;;;;;;;;;;;4.00;99.90;;;;;;5014312;28;19928;-76
2022/01/09 00:11:12;;;;;;;;;;;4.00;99.90;;;;;;5014867;28;19925;-75
2022/01/09 00:13:37;;;;;;;;;;;4.00;99.90;;;;;;5014618;28;20386;-76
2022/01/09 00:16:03;;;;;;;;;;;4.00;99.90;;;;;;5014343;28;19972;-77
2022/01/09 00:18:29;;;;;;;;;;;4.00;99.90;;;;;;5014350;28;20019;-76
2022/01/09 00:20:58;;;;;;;;;;;4.00;99.90;;;;;;5014607;28;19921;-76
2022/01/09 00:23:24;;;;;;;;;;;4.00;99.90;;;;;;5014018;28;19921;-76
2022/01/09 00:25:49;;;;;;;;;;;4.00;99.90;;;;;;5014541;28;20577;-76
2022/01/09 00:28:15;;;;;;;;;;;4.00;99.90;;;;;;5014275;28;20070;-76
2022/01/09 00:30:41;;;;;;;;;;;4.00;99.90;;;;;;5013839;28;19921;-76
2022/01/09 00:33:11;;;;;;;;;;;4.00;99.90;;;;;;5029428;28;19925;-77
2022/01/09 00:35:37;;;;;;;;;;;4.10;99.90;;;;;;5031039;28;19928;-77
2022/01/09 00:38:02;;;;;;;;;;;4.00;99.90;;;;;;5014757;28;19921;-77
2022/01/09 00:40:28;;;;;;;;;;;4.10;99.90;;;;;;5015014;28;19921;-77
2022/01/09 00:42:53;;;;;;;;;;;4.10;99.90;;;;;;5014102;28;20091;-77
2022/01/09 00:45:19;;;;;;;;;;;4.10;99.90;;;;;;5014015;28;19925;-77
2022/01/09 00:47:45;;;;;;;;;;;4.10;99.90;;;;;;5014352;28;19921;-77
2022/01/09 00:50:11;;;;;;;;;;;4.10;99.90;;;;;;5014861;28;19927;-77
2022/01/09 00:52:37;;;;;;;;;;;4.10;99.90;;;;;;5014070;28;19932;-77
2022/01/09 00:55:03;;;;;;;;;;;4.10;99.90;;;;;;5014213;28;19921;-77
2022/01/09 00:57:35;;;;;;;;;;;4.10;99.90;;;;;;5013954;28;20339;-77
2022/01/09 01:00:01;;;;;;;;;;;4.10;99.90;;;;;;5014813;28;19975;-77
2022/01/09 01:02:26;;;;;;;;;;;4.10;99.90;;;;;;5014446;28;19921;-77
2022/01/09 01:04:54;;;;;;;;;;;4.10;99.90;;;;;;5014577;28;19921;-77
2022/01/09 01:07:20;;;;;;;;;;;4.10;99.90;;;;;;5014420;28;19921;-77
2022/01/09 01:09:46;;;;;;;;;;;4.10;99.90;;;;;;5014607;28;20016;-77
2022/01/09 01:12:12;;;;;;;;;;;4.20;99.90;;;;;;5013958;28;19925;-77
2022/01/09 01:14:40;;;;;;;;;;;4.10;99.90;;;;;;5014898;28;19922;-77
2022/01/09 01:17:06;;;;;;;;;;;4.10;99.90;;;;;;5015052;28;19921;-77
2022/01/09 01:19:31;;;;;;;;;;;4.10;99.90;;;;;;5014801;28;20333;-77
2022/01/09 01:21:58;;;;;;;;;;;4.10;99.90;;;;;;5014152;28;20013;-77
2022/01/09 01:24:27;;;;;;;;;;;4.10;99.90;;;;;;5014511;28;19943;-77
2022/01/09 01:26:53;;;;;;;;;;;4.10;99.90;;;;;;5014198;28;19921;-77
2022/01/09 01:29:19;;;;;;;;;;;4.20;99.90;;;;;;5013887;28;19925;-77
2022/01/09 01:31:44;;;;;;;;;;;4.20;99.90;;;;;;5013861;28;19922;-77
2022/01/09 01:34:12;;;;;;;;;;;4.20;99.90;;;;;;5014533;28;20008;-77
2022/01/09 01:36:38;;;;;;;;;;;4.20;99.90;;;;;;5017506;28;19928;-77
2022/01/09 01:39:04;;;;;;;;;;;4.20;99.90;;;;;;5017379;28;20470;-77
2022/01/09 01:41:29;;;;;;;;;;;4.20;99.90;;;;;;5017912;28;19921;-77
2022/01/09 01:43:55;;;;;;;;;;;4.20;99.90;;;;;;5017868;28;19929;-77
2022/01/09 01:46:21;;;;;;;;;;;4.20;99.90;;;;;;5018105;28;19972;-76
2022/01/09 01:48:46;;;;;;;;;;;4.20;99.90;;;;;;5017476;28;19921;-76
2022/01/09 01:51:12;;;;;;;;;;;4.20;99.90;;;;;;5016891;28;19979;-77
2022/01/09 01:53:39;;;;;;;;;;;4.20;99.90;;;;;;5016681;28;19925;-77
2022/01/09 01:56:07;;;;;;;;;;;4.20;99.90;;;;;;5017688;28;20004;-76
2022/01/09 01:58:36;;;;;;;;;;;4.30;99.90;;;;;;5017846;28;19921;-77
2022/01/09 02:01:02;;;;;;;;;;;4.30;99.90;;;;;;5017271;28;20416;-77
2022/01/09 02:03:28;;;;;;;;;;;4.30;99.90;;;;;;5016885;28;19921;-76
2022/01/09 02:05:53;;;;;;;;;;;4.40;99.90;;;;;;5016528;28;20297;-76
2022/01/09 02:08:19;;;;;;;;;;;4.40;99.90;;;;;;5016004;28;19925;-76
2022/01/09 02:10:45;;;;;;;;;;;4.40;99.90;;;;;;5017120;28;19944;-77
2022/01/09 02:13:13;;;;;;;;;;;4.50;99.90;;;;;;5016453;28;19932;-77
2022/01/09 02:15:44;;;;;;;;;;;4.40;99.90;;;;;;5016854;28;20008;-77
2022/01/09 02:18:11;;;;;;;;;;;4.40;99.90;;;;;;5016295;28;19925;-76
2022/01/09 02:20:39;;;;;;;;;;;4.50;99.90;;;;;;5016923;28;19925;-76
2022/01/09 02:23:06;;;;;;;;;;;4.40;99.90;;;;;;5016717;28;20385;-76
2022/01/09 02:25:32;;;;;;;;;;;4.50;99.90;;;;;;5016761;28;19925;-77
2022/01/09 02:27:58;;;;;;;;;;;4.50;99.90;;;;;;5016553;28;19921;-76
2022/01/09 02:30:24;;;;;;;;;;;4.50;99.90;;;;;;5016992;28;20411;-76
2022/01/09 02:32:49;;;;;;;;;;;4.60;99.90;;;;;;5016030;28;20000;-77
2022/01/09 02:35:15;;;;;;;;;;;4.60;99.90;;;;;;5016209;28;19921;-76
2022/01/09 02:37:40;;;;;;;;;;;4.60;99.90;;;;;;5016091;28;19932;-76
2022/01/09 02:40:07;;;;;;;;;;;4.60;99.90;;;;;;5016167;28;19921;-76
2022/01/09 02:42:33;;;;;;;;;;;4.70;99.90;;;;;;5016179;28;19944;-76
2022/01/09 02:44:59;;;;;;;;;;;4.80;99.90;;;;;;5016243;28;19932;-76
2022/01/09 02:47:27;;;;;;;;;;;4.80;99.90;;;;;;5015651;28;19921;-76
2022/01/09 02:49:54;;;;;;;;;;;4.80;99.90;;;;;;5016347;28;20215;-76
2022/01/09 02:52:31;;;;;;;;;;;4.90;99.90;;;;;;5016511;28;19925;-78
2022/01/09 02:55:12;;;;;;;;;;;4.90;99.90;;;;;;5015752;28;20447;-78
2022/01/09 02:57:45;;;;;;;;;;;4.90;99.90;;;;;;5015935;28;19921;-78
2022/01/09 03:00:16;;;;;;;;;;;5.00;99.90;;;;;;5016256;28;19921;-77
2022/01/09 03:02:42;;;;;;;;;;;5.00;99.90;;;;;;5015326;28;19960;-77
2022/01/09 03:05:09;;;;;;;;;;;5.10;99.90;;;;;;5016722;28;20032;-77
2022/01/09 03:07:35;;;;;;;;;;;5.10;99.90;;;;;;5016382;28;19975;-77
2022/01/09 03:10:00;;;;;;;;;;;5.10;99.90;;;;;;5016849;28;19948;-77
2022/01/09 03:12:26;;;;;;;;;;;5.10;99.90;;;;;;5016507;28;20301;-77
2022/01/09 03:14:52;;;;;;;;;;;5.20;99.90;;;;;;5017136;28;19964;-77
2022/01/09 03:17:20;;;;;;;;;;;5.20;99.90;;;;;;5016885;28;20008;-77
2022/01/09 03:19:48;;;;;;;;;;;5.20;99.90;;;;;;5016616;28;20289;-77
2022/01/09 03:22:14;;;;;;;;;;;5.20;99.90;;;;;;5016223;28;19957;-77
2022/01/09 03:24:45;;;;;;;;;;;5.20;99.90;;;;;;5016762;28;19933;-77
2022/01/09 03:27:11;;;;;;;;;;;5.20;99.90;;;;;;5027704;23;19925;-76
2022/01/09 03:29:36;;;;;;;;;;;5.20;99.90;;;;;;5015518;28;19922;-77
2022/01/09 03:32:04;;;;;;;;;;;5.30;99.90;;;;;;5014805;28;21373;-77
2022/01/09 03:34:30;;;;;;;;;;;5.30;99.90;;;;;;5048268;28;19932;-77
2022/01/09 03:36:55;;;;;;;;;;;5.20;99.90;;;;;;5042031;28;19983;-77
2022/01/09 03:39:21;;;;;;;;;;;5.30;99.90;;;;;;4995716;28;19922;-77
2022/01/09 03:41:46;;;;;;;;;;;5.30;99.90;;;;;;4995705;28;19921;-77
2022/01/09 03:44:12;;;;;;;;;;;5.30;99.90;;;;;;4995421;28;19948;-77
2022/01/09 03:46:37;;;;;;;;;;;5.30;99.90;;;;;;4995538;28;20022;-77
2022/01/09 03:49:03;;;;;;;;;;;5.30;99.90;;;;;;4995012;28;19921;-77
2022/01/09 03:51:32;;;;;;;;;;;5.30;99.90;;;;;;4995643;28;20407;-77
2022/01/09 03:53:58;;;;;;;;;;;5.30;99.90;;;;;;4995194;28;19922;-77
2022/01/09 03:56:24;;;;;;;;;;;5.30;99.90;;;;;;4995720;28;19925;-77
2022/01/09 03:58:49;;;;;;;;;;;5.30;99.90;;;;;;4994570;28;19922;-77
2022/01/09 04:01:15;;;;;;;;;;;5.30;99.90;;;;;;4994713;28;19926;-77
2022/01/09 04:03:40;;;;;;;;;;;5.30;99.90;;;;;;4995100;28;19999;-77
2022/01/09 04:06:06;;;;;;;;;;;5.30;99.90;;;;;;4995584;28;20396;-77
2022/01/09 04:08:33;;;;;;;;;;;5.30;99.90;;;;;;4994850;28;19929;-77
2022/01/09 04:11:00;;;;;;;;;;;5.30;99.90;;;;;;4994984;28;19944;-77
2022/01/09 04:13:25;;;;;;;;;;;5.30;99.90;;;;;;4994930;28;19929;-77
2022/01/09 04:15:51;;;;;;;;;;;5.40;99.90;;;;;;5011467;28;19926;-77
2022/01/09 04:18:17;;;;;;;;;;;5.30;99.90;;;;;;4995325;28;19965;-77
2022/01/09 04:20:42;;;;;;;;;;;5.30;99.90;;;;;;5011431;28;20377;-77
2022/01/09 04:23:08;;;;;;;;;;;5.40;99.90;;;;;;4994918;28;19928;-77
2022/01/09 04:25:34;;;;;;;;;;;5.40;99.90;;;;;;4995480;28;19921;-77
2022/01/09 04:27:59;;;;;;;;;;;5.40;99.90;;;;;;4995088;28;20009;-77
2022/01/09 04:30:25;;;;;;;;;;;5.40;99.90;;;;;;4995339;28;19972;-77
2022/01/09 04:32:50;;;;;;;;;;;5.40;99.90;;;;;;4994425;28;19968;-77
2022/01/09 04:35:17;;;;;;;;;;;5.30;99.90;;;;;;4994658;28;19976;-77
2022/01/09 04:37:42;;;;;;;;;;;5.30;99.90;;;;;;4994662;28;19991;-77
2022/01/09 04:40:10;;;;;;;;;;;5.30;99.90;;;;;;4995031;28;20374;-77
2022/01/09 04:42:43;;;;;;;;;;;5.30;99.90;;;;;;4994316;28;19930;-77
2022/01/09 04:45:09;;;;;;;;;;;5.20;99.90;;;;;;4995101;28;19928;-77
2022/01/09 04:47:35;;;;;;;;;;;5.20;99.90;;;;;;4994345;28;19926;-78
2022/01/09 04:50:01;;;;;;;;;;;5.20;99.90;;;;;;4978898;28;19922;-78
2022/01/09 04:52:33;;;;;;;;;;;5.20;99.90;;;;;;4994241;28;19922;-77
2022/01/09 04:54:58;;;;;;;;;;;5.20;99.90;;;;;;4995209;28;20294;-77
2022/01/09 04:57:24;;;;;;;;;;;5.10;99.90;;;;;;4995195;28;19922;-77
2022/01/09 04:59:49;;;;;;;;;;;5.10;99.90;;;;;;4994873;28;19967;-77
2022/01/09 05:02:15;;;;;;;;;;;5.10;99.90;;;;;;4994114;28;19925;-77
2022/01/09 05:04:40;;;;;;;;;;;5.10;99.90;;;;;;4994499;28;19940;-77
2022/01/09 05:07:06;;;;;;;;;;;5.00;99.90;;;;;;4994809;28;20373;-77
2022/01/09 05:09:31;;;;;;;;;;;5.00;99.90;;;;;;4994880;28;19932;-77
2022/01/09 05:11:57;;;;;;;;;;;5.00;99.90;;;;;;4998362;28;20004;-77
2022/01/09 05:14:23;;;;;;;;;;;5.00;99.90;;;;;;4998007;28;20305;-77
2022/01/09 05:16:49;;;;;;;;;;;5.00;99.90;;;;;;4998530;28;19928;-77
2022/01/09 05:19:20;;;;;;;;;;;5.00;99.90;;;;;;4998693;28;20599;-78
2022/01/09 05:21:46;;;;;;;;;;;5.00;99.90;;;;;;4998311;28;19968;-78
2022/01/09 05:24:12;;;;;;;;;;;4.90;99.90;;;;;;4998485;28;19928;-77
2022/01/09 05:26:37;;;;;;;;;;;4.90;99.90;;;;;;4999146;28;19922;-78
2022/01/09 05:29:03;;;;;;;;;;;4.90;99.90;;;;;;4998321;28;20403;-77
2022/01/09 05:31:28;;;;;;;;;;;4.90;99.90;;;;;;4997933;28;19929;-77
2022/01/09 05:33:54;;;;;;;;;;;4.90;99.90;;;;;;5013930;28;19971;-77
2022/01/09 05:36:19;;;;;;;;;;;4.90;99.90;;;;;;4982099;28;20341;-77
2022/01/09 05:38:44;;;;;;;;;;;4.90;99.90;;;;;;4997840;28;19996;-77
2022/01/09 05:41:10;;;;;;;;;;;4.90;99.90;;;;;;4997834;28;19921;-77
2022/01/09 05:43:36;;;;;;;;;;;4.90;99.90;;;;;;4981496;28;20308;-77
2022/01/09 05:46:02;;;;;;;;;;;4.90;99.90;;;;;;4998014;28;19921;-77
2022/01/09 05:48:27;;;;;;;;;;;4.90;99.90;;;;;;5030372;28;19971;-77
2022/01/09 05:50:53;;;;;;;;;;;4.90;99.90;;;;;;5013682;28;19922;-77
2022/01/09 05:53:18;;;;;;;;;;;4.90;99.90;;;;;;4997089;28;19929;-77
2022/01/09 05:55:44;;;;;;;;;;;4.90;99.90;;;;;;4997689;28;19936;-77
2022/01/09 05:58:09;;;;;;;;;;;4.80;99.90;;;;;;4997411;28;19992;-77
2022/01/09 06:00:35;;;;;;;;;;;4.80;99.90;;;;;;4997566;28;19965;-77
2022/01/09 06:03:00;;;;;;;;;;;4.80;99.90;;;;;;4997128;28;19921;-77
2022/01/09 06:05:26;;;;;;;;;;;4.70;99.90;;;;;;4997798;28;19925;-77
2022/01/09 06:07:51;;;;;;;;;;;4.70;99.90;;;;;;5013285;28;19921;-77
2022/01/09 06:10:17;;;;;;;;;;;4.60;99.90;;;;;;4997421;28;19921;-77
2022/01/09 06:12:42;;;;;;;;;;;4.60;99.90;;;;;;4996942;28;19922;-77
2022/01/09 06:15:09;;;;;;;;;;;4.60;99.90;;;;;;4997719;28;19926;-77
2022/01/09 06:17:35;;;;;;;;;;;4.60;99.90;;;;;;4996777;28;20385;-77
2022/01/09 06:20:01;;;;;;;;;;;4.50;99.90;;;;;;4997260;28;19922;-77
2022/01/09 06:22:26;;;;;;;;;;;4.50;99.90;;;;;;4995968;28;20278;-77
2022/01/09 06:24:51;;;;;;;;;;;4.40;99.90;;;;;;4996771;28;20338;-77
2022/01/09 06:27:17;;;;;;;;;;;4.40;99.90;;;;;;4996722;28;19925;-77
2022/01/09 06:29:43;;;;;;;;;;;4.40;99.90;;;;;;4997063;28;20035;-77
2022/01/09 06:32:09;;;;;;;;;;;4.40;99.90;;;;;;4996725;28;20012;-77
2022/01/09 06:34:35;;;;;;;;;;;4.40;99.90;;;;;;4996747;28;19930;-77
2022/01/09 06:37:00;;;;;;;;;;;4.40;99.90;;;;;;4981403;28;19922;-77
2022/01/09 06:39:26;;;;;;;;;;;4.40;99.90;;;;;;4998157;28;19921;-78
2022/01/09 06:41:51;;;;;;;;;;;4.40;99.90;;;;;;4998396;28;19969;-78
2022/01/09 06:44:17;;;;;;;;;;;4.50;99.90;;;;;;4997081;28;19926;-78
2022/01/09 06:46:43;;;;;;;;;;;4.50;99.90;;;;;;4996902;28;20282;-78
2022/01/09 06:49:09;;;;;;;;;;;4.50;99.90;;;;;;4996610;28;20441;-77
2022/01/09 06:51:34;;;;;;;;;;;4.40;99.90;;;;;;4996689;28;19972;-77
2022/01/09 06:54:00;;;;;;;;;;;4.40;99.90;;;;;;4980325;28;20332;-77
2022/01/09 06:56:25;;;;;;;;;;;4.40;99.90;;;;;;4996810;28;19929;-77
2022/01/09 06:58:51;;;;;;;;;;;4.40;99.90;;;;;;4996452;28;19978;-77
2022/01/09 07:01:16;;;;;;;;;;;4.40;99.90;;;;;;4997085;28;20289;-77
2022/01/09 07:03:41;;;;;;;;;;;4.40;99.90;;;;;;4997030;28;19921;-77
2022/01/09 07:06:07;;;;;;;;;;;4.40;99.90;;;;;;4997013;28;20015;-78
2022/01/09 07:08:34;;;;;;;;;;;4.40;99.90;;;;;;5011928;28;19929;-78
2022/01/09 07:11:00;;;;;;;;;;;4.40;99.90;;;;;;4996603;28;19922;-78
2022/01/09 07:13:25;;;;;;;;;;;4.40;99.90;;;;;;4997478;28;19925;-80
2022/01/09 07:15:51;;;;;;;;;;;4.40;99.90;;;;;;4997108;28;19926;-75
2022/01/09 07:18:17;;;;;;;;;;;4.50;99.90;;;;;;4996348;28;19936;-75
2022/01/09 07:20:42;;;;;;;;;;;4.40;99.90;;;;;;4996187;28;20394;-73
2022/01/09 07:23:07;;;;;;;;;;;4.40;99.90;;;;;;4995571;28;19930;-78
2022/01/09 07:25:33;;;;;;;;;;;4.40;99.90;;;;;;4993236;28;19944;-78
2022/01/09 07:27:59;;;;;;;;;;;4.30;99.90;;;;;;4980057;28;19975;-78
2022/01/09 07:30:26;;;;;;;;;;;4.30;99.90;;;;;;4995892;28;20858;-77
2022/01/09 07:32:51;;;;;;;;;;;4.30;99.90;;;;;;4979246;28;19922;-78
2022/01/09 07:35:17;;;;;;;;;;;4.30;99.90;;;;;;5011654;28;20012;-77
2022/01/09 07:37:42;;;;;;;;;;;4.30;99.90;;;;;;4995493;28;20274;-76
2022/01/09 07:40:08;;;;;;;;;;;4.30;99.90;;;;;;4981463;28;19956;-79
2022/01/09 07:42:34;;;;;;;;;;;4.40;99.90;;;;;;5012026;28;19929;-78
2022/01/09 07:45:00;;;;;;;;;;;4.40;99.90;;;;;;4995183;28;19929;-78
2022/01/09 07:47:26;;;;;;;;;;;4.40;99.90;;;;;;4995329;28;19922;-78
2022/01/09 07:49:51;;;;;;;;;;;4.40;99.90;;;;;;4995583;28;19928;-78
2022/01/09 07:52:17;;;;;;;;;;;4.40;99.90;;;;;;4994877;28;19930;-77
2022/01/09 07:54:42;;;;;;;;;;;4.30;99.90;;;;;;4994063;28;19971;-78
2022/01/09 07:57:07;;;;;;;;;;;4.30;99.90;;;;;;4995555;28;20274;-78
2022/01/09 07:59:33;;;;;;;;;;;4.30;99.90;;;;;;4995754;28;20035;-78
2022/01/09 08:01:59;;;;;;;;;;;4.30;99.90;;;;;;4995149;28;19980;-78
2022/01/09 08:04:24;;;;;;;;;;;4.30;99.90;;;;;;4996176;28;20085;-79
2022/01/09 08:06:50;;;;;;;;;;;4.30;99.90;;;;;;5016632;28;19948;-82
2022/01/09 08:09:15;;;;;;;;;;;4.30;99.90;;;;;;4996711;28;19925;-78
2022/01/09 08:11:41;;;;;;;;;;;4.30;99.90;;;;;;4995602;28;19928;-77
2022/01/09 08:14:06;;;;;;;;;;;4.30;99.90;;;;;;5011101;28;19921;-78
2022/01/09 08:16:32;;;;;;;;;;;4.30;99.90;;;;;;5011864;28;19925;-78
2022/01/09 08:18:57;;;;;;;;;;;4.30;99.90;;;;;;4994879;28;20401;-78
2022/01/09 08:21:22;;;;;;;;;;;4.30;99.90;;;;;;4995093;28;19928;-78
2022/01/09 08:23:48;;;;;;;;;;;4.30;99.90;;;;;;4994883;28;20389;-78
2022/01/09 08:26:14;;;;;;;;;;;4.20;99.90;;;;;;4995099;28;19922;-78
2022/01/09 08:28:44;;;;;;;;;;;4.20;99.90;;;;;;4995130;28;19963;-78
2022/01/09 08:31:10;;;;;;;;;;;4.20;99.90;;;;;;4995127;28;19921;-78
2022/01/09 08:33:35;;;;;;;;;;;4.20;99.90;;;;;;4994961;28;20300;-78
2022/01/09 08:36:01;;;;;;;;;;;4.20;99.90;;;;;;4994557;28;19929;-78
2022/01/09 08:38:26;;;;;;;;;;;4.20;99.90;;;;;;4995027;28;19925;-78
2022/01/09 08:40:52;;;;;;;;;;;4.20;99.90;;;;;;4995068;28;19921;-78
2022/01/09 08:43:17;;;;;;;;;;;4.20;99.90;;;;;;4994754;28;19984;-77
2022/01/09 08:45:43;;;;;;;;;;;4.20;99.90;;;;;;4993938;28;19928;-78
2022/01/09 08:48:08;;;;;;;;;;;4.20;99.90;;;;;;4994710;28;20360;-77
2022/01/09 08:50:34;;;;;;;;;;;4.20;99.90;;;;;;4994503;28;19937;-76
2022/01/09 08:52:59;;;;;;;;;;;4.20;99.90;;;;;;4977782;28;19921;-77
2022/01/09 08:55:25;;;;;;;;;;;4.20;99.90;;;;;;4998483;28;19929;-77
2022/01/09 08:57:50;;;;;;;;;;;4.20;99.90;;;;;;5005539;28;20374;-77
2022/01/09 09:00:18;;;;;;;;;;;4.30;99.90;;;;;;4994628;28;19922;-77
2022/01/09 09:02:44;;;;;;;;;;;4.20;99.90;;;;;;4978243;28;20399;-77
2022/01/09 09:05:09;;;;;;;;;;;4.30;99.90;;;;;;5011108;28;19926;-77
2022/01/09 09:07:35;;;;;;;;;;;4.30;99.90;;;;;;4977794;28;20019;-77
2022/01/09 09:10:04;;;;;;;;;;;4.30;99.90;;;;;;5027379;28;20389;-77
2022/01/09 09:12:31;;;;;;;;;;;4.40;99.90;;;;;;4994737;28;19984;-77
2022/01/09 09:14:57;;;;;;;;;;;4.40;99.90;;;;;;5026933;28;20270;-77
2022/01/09 09:17:23;;;;;;;;;;;4.40;99.90;;;;;;4978162;28;20356;-77
2022/01/09 09:19:48;;;;;;;;;;;4.40;99.90;;;;;;4994569;28;20265;-77
2022/01/09 09:22:14;;;;;;;;;;;4.50;99.90;;;;;;4994486;28;19976;-77
2022/01/09 09:24:40;;;;;;;;;;;4.50;99.90;;;;;;4992911;28;20409;-77
2022/01/09 09:27:06;;;;;;;;;;;4.50;99.90;;;;;;5011812;23;19938;-76
2022/01/09 09:29:32;;;;;;;;;;;4.50;99.90;;;;;;4948099;28;19928;-76
2022/01/09 09:31:57;;;;;;;;;;;4.50;99.90;;;;;;4941177;28;19922;-76
2022/01/09 09:34:23;;;;;;;;;;;4.50;99.90;;;;;;4958553;28;19933;-76
2022/01/09 09:36:49;;;;;;;;;;;4.60;99.90;;;;;;4939835;28;19929;-75
2022/01/09 09:39:14;;;;;;;;;;;4.70;99.90;;;;;;4961622;28;19926;-75
2022/01/09 09:41:41;;;;;;;;;;;4.60;99.90;;;;;;4974864;28;19922;-77
2022/01/09 09:44:09;;;;;;;;;;;4.70;99.90;;;;;;4968169;28;19926;-77
2022/01/09 09:46:34;;;;;;;;;;;4.70;99.90;;;;;;4939597;28;19922;-77
2022/01/09 09:49:03;;;;;;;;;;;4.70;99.90;;;;;;4939549;28;19980;-76
2022/01/09 09:51:30;;;;;;;;;;;4.80;99.90;;;;;;4946521;28;19965;-77
2022/01/09 09:53:56;;;;;;;;;;;4.80;99.90;;;;;;4967427;28;19926;-77
2022/01/09 09:56:24;;;;;;;;;;;4.80;99.90;;;;;;4966128;28;19941;-77
2022/01/09 09:58:51;;;;;;;;;;;5.00;99.90;;;;;;4942755;28;19922;-77
2022/01/09 10:01:24;;;;;;;;;;;5.00;99.90;;;;;;4938982;28;19926;-76
2022/01/09 10:04:22;;;;;;;;;;;4.90;99.90;;;;;;4946158;28;19976;-76
2022/01/09 10:06:50;;;;;;;;;;;5.00;99.90;;;;;;4913696;28;20005;-77
2022/01/09 10:09:23;;;;;;;;;;;5.00;99.90;;;;;;4944859;28;20356;-76
2022/01/09 10:11:53;;;;;;;;;;;5.10;99.90;;;;;;4960095;28;19952;-77
2022/01/09 10:14:29;;;;;;;;;;;5.20;99.90;;;;;;4944796;28;19926;-77
2022/01/09 10:17:07;;;;;;;;;;;5.20;99.90;;;;;;4968542;28;19921;-76
2022/01/09 10:20:00;;;;;;;;;;;5.40;99.90;;;;;;4944088;28;20012;-77
2022/01/09 10:22:40;;;;;;;;;;;5.30;99.90;;;;;;4974497;28;19926;-77
2022/01/09 10:25:17;;;;;;;;;;;5.50;99.90;;;;;;4966882;28;20464;-77
2022/01/09 10:27:43;;;;;;;;;;;5.60;99.90;;;;;;4977403;28;19929;-77
2022/01/09 10:30:09;;;;;;;;;;;5.70;99.90;;;;;;4961879;28;20204;-77
2022/01/09 10:32:34;;;;;;;;;;;5.80;99.90;;;;;;4941687;28;20402;-77
2022/01/09 10:35:12;;;;;;;;;;;6.00;99.90;;;;;;4942320;28;19926;-77
2022/01/09 10:37:39;;;;;;;;;;;6.10;99.90;;;;;;4942772;28;19922;-77
2022/01/09 10:40:05;;;;;;;;;;;6.30;99.90;;;;;;4967837;28;20379;-77
2022/01/09 10:42:32;;;;;;;;;;;6.30;99.90;;;;;;4947345;28;19948;-77
2022/01/09 10:45:17;;;;;;;;;;;6.40;99.90;;;;;;4970497;28;20390;-77
2022/01/09 10:47:45;;;;;;;;;;;6.40;99.90;;;;;;4964218;28;20425;-78
2022/01/09 10:50:22;;;;;;;;;;;6.30;99.90;;;;;;4950020;28;19922;-78
2022/01/09 10:52:48;;;;;;;;;;;6.20;99.90;;;;;;4970554;28;20017;-76
2022/01/09 10:55:13;;;;;;;;;;;6.10;99.90;;;;;;4964293;28;20009;-76
2022/01/09 10:57:43;;;;;;;;;;;6.00;99.90;;;;;;4965935;28;19922;-77
2022/01/09 11:00:15;;;;;;;;;;;6.00;99.90;;;;;;4959941;28;19938;-77
2022/01/09 11:02:41;;;;;;;;;;;5.90;99.90;;;;;;4973517;28;19926;-77
2022/01/09 11:05:07;;;;;;;;;;;5.90;99.90;;;;;;4975338;28;20459;-77
2022/01/09 11:07:33;;;;;;;;;;;5.90;99.90;;;;;;4945259;28;19934;-75
2022/01/09 11:10:00;;;;;;;;;;;5.80;99.90;;;;;;4966480;28;19976;-75
2022/01/09 11:12:32;;;;;;;;;;;5.80;99.90;;;;;;4958868;28;20042;-75
2022/01/09 11:14:59;;;;;;;;;;;5.80;99.90;;;;;;4971038;28;20333;-75
2022/01/09 11:17:25;;;;;;;;;;;5.80;99.90;;;;;;4965603;28;19934;-78
2022/01/09 11:19:51;;;;;;;;;;;5.80;99.90;;;;;;4949790;28;19933;-77
2022/01/09 11:22:21;;;;;;;;;;;5.80;99.90;;;;;;4938464;28;19936;-76
2022/01/09 11:24:57;;;;;;;;;;;5.80;99.90;;;;;;4952562;28;19937;-76
2022/01/09 11:27:23;;;;;;;;;;;5.80;99.90;;;;;;4944437;28;20294;-76
2022/01/09 11:30:03;;;;;;;;;;;5.80;99.90;;;;;;4963632;28;19922;-77
2022/01/09 11:32:48;;;;;;;;;;;5.80;99.90;;;;;;4964033;28;19936;-76
2022/01/09 11:35:33;;;;;;;;;;;5.90;99.90;;;;;;4951432;28;20385;-76
2022/01/09 11:38:25;;;;;;;;;;;6.10;99.90;;;;;;4954126;28;19926;-76
2022/01/09 11:40:50;;;;;;;;;;;6.30;99.90;;;;;;4942845;28;19922;-76
2022/01/09 11:43:17;;;;;;;;;;;6.50;99.90;;;;;;4954371;28;19926;-76
2022/01/09 11:45:44;;;;;;;;;;;6.90;99.90;;;;;;4968329;28;19922;-76
2022/01/09 11:48:13;;;;;;;;;;;7.40;99.90;;;;;;4966493;28;19976;-76
2022/01/09 11:51:01;;;;;;;;;;;8.00;99.90;;;;;;4949140;28;19926;-76
2022/01/09 11:53:26;;;;;;;;;;;9.10;99.90;;;;;;4937962;28;20310;-76
2022/01/09 11:55:52;;;;;;;;;;;9.90;99.90;;;;;;4945190;28;19926;-76
2022/01/09 11:58:20;;;;;;;;;;;10.50;99.90;;;;;;4955964;28;19922;-76
2022/01/09 12:00:46;;;;;;;;;;;10.90;99.90;;;;;;4962365;28;19925;-76
2022/01/09 12:03:27;;;;;;;;;;;11.20;99.90;;;;;;4948709;28;20446;-76
2022/01/09 12:06:00;;;;;;;;;;;11.60;99.90;;;;;;4953650;28;19926;-76
2022/01/09 12:08:26;;;;;;;;;;;11.00;99.90;;;;;;4945816;28;19937;-76
2022/01/09 12:10:52;;;;;;;;;;;10.70;99.90;;;;;;4953528;28;19922;-76
2022/01/09 12:13:50;;;;;;;;;;;10.50;99.90;;;;;;4954384;28;19980;-76
2022/01/09 12:16:34;;;;;;;;;;;10.10;99.90;;;;;;4913708;28;19926;-75
2022/01/09 12:19:00;;;;;;;;;;;10.00;99.90;;;;;;4962766;28;19941;-76
2022/01/09 12:21:44;;;;;;;;;;;9.60;99.90;;;;;;4964366;28;19926;-76
2022/01/09 12:24:29;;;;;;;;;;;9.20;99.90;;;;;;4951843;28;19953;-76
2022/01/09 12:26:55;;;;;;;;;;;8.60;99.90;;;;;;4962219;28;19965;-76
2022/01/09 12:29:40;;;;;;;;;;;8.20;99.90;;;;;;4959979;28;20362;-76
2022/01/09 12:32:24;;;;;;;;;;;8.10;99.90;;;;;;4962036;28;20370;-76
2022/01/09 12:35:09;;;;;;;;;;;8.00;99.90;;;;;;4939474;28;19933;-76
2022/01/09 12:37:43;;;;;;;;;;;7.80;99.90;;;;;;4955529;28;19929;-77
2022/01/09 12:40:10;;;;;;;;;;;7.80;99.90;;;;;;4939710;28;20440;-77
2022/01/09 12:42:35;;;;;;;;;;;7.70;99.90;;;;;;4942642;28;19922;-79
2022/01/09 12:45:04;;;;;;;;;;;8.10;99.90;;;;;;4975043;28;19921;-77
2022/01/09 12:47:40;;;;;;;;;;;8.80;99.90;;;;;;4959304;28;19933;-77
2022/01/09 12:50:06;;;;;;;;;;;9.30;99.90;;;;;;4963035;28;19937;-78
2022/01/09 12:52:32;;;;;;;;;;;9.40;99.90;;;;;;4952228;28;19930;-78
2022/01/09 12:55:08;;;;;;;;;;;9.30;99.90;;;;;;4975257;28;20279;-77
2022/01/09 12:57:54;;;;;;;;;;;8.90;99.90;;;;;;4960095;28;19929;-77
2022/01/09 13:00:29;;;;;;;;;;;8.70;99.90;;;;;;4939934;28;19922;-77
2022/01/09 13:02:56;;;;;;;;;;;8.70;99.90;;;;;;4939487;28;19922;-77
2022/01/09 13:05:22;;;;;;;;;;;9.20;99.90;;;;;;4939931;28;19922;-77
2022/01/09 13:07:58;;;;;;;;;;;9.60;99.90;;;;;;4939356;28;19922;-76
2022/01/09 13:10:28;;;;;;;;;;;9.40;99.90;;;;;;4940327;28;19922;-75
2022/01/09 13:13:04;;;;;;;;;;;9.50;99.90;;;;;;4940235;28;20400;-76
2022/01/09 13:15:31;;;;;;;;;;;9.50;99.90;;;;;;4940572;28;20412;-78
2022/01/09 13:17:57;;;;;;;;;;;9.40;99.90;;;;;;4941768;28;19972;-80
2022/01/09 13:20:24;;;;;;;;;;;9.30;99.90;;;;;;4941457;28;19978;-79
2022/01/09 13:23:04;;;;;;;;;;;9.10;99.90;;;;;;4957265;28;19922;-79
2022/01/09 13:25:40;;;;;;;;;;;9.00;99.90;;;;;;4941329;28;19922;-78
2022/01/09 13:28:06;;;;;;;;;;;8.90;99.90;;;;;;4937971;28;19930;-77
2022/01/09 13:30:32;;;;;;;;;;;9.00;99.90;;;;;;4944149;28;19928;-76
2022/01/09 13:33:05;;;;;;;;;;;8.90;99.90;;;;;;4958657;28;20020;-76
2022/01/09 13:35:30;;;;;;;;;;;8.70;99.90;;;;;;4943405;28;19930;-77
2022/01/09 13:37:57;;;;;;;;;;;8.50;99.90;;;;;;4942895;28;20014;-77
2022/01/09 13:40:23;;;;;;;;;;;8.50;99.90;;;;;;4943097;28;19945;-77
2022/01/09 13:42:52;;;;;;;;;;;8.40;99.90;;;;;;4958323;28;20017;-76
2022/01/09 13:45:21;;;;;;;;;;;8.20;99.90;;;;;;4942863;28;20394;-77
2022/01/09 13:47:52;;;;;;;;;;;7.90;99.90;;;;;;4942285;28;19928;-76
2022/01/09 13:50:21;;;;;;;;;;;7.60;99.90;;;;;;4942209;28;20017;-76
2022/01/09 13:52:48;;;;;;;;;;;7.40;99.90;;;;;;4958890;28;20314;-76
2022/01/09 13:55:16;;;;;;;;;;;7.40;99.90;;;;;;4943189;28;19929;-75
2022/01/09 13:57:46;;;;;;;;;;;7.30;99.90;;;;;;4942768;28;19976;-77
2022/01/09 14:00:12;;;;;;;;;;;7.20;99.90;;;;;;4942483;28;20382;-76
2022/01/09 14:02:40;;;;;;;;;;;6.90;99.90;;;;;;4942443;28;19944;-76
2022/01/09 14:05:18;;;;;;;;;;;6.60;99.90;;;;;;4942234;28;20255;-76
2022/01/09 14:07:48;;;;;;;;;;;6.40;99.90;;;;;;4942581;28;20013;-75
2022/01/09 14:10:15;;;;;;;;;;;6.20;99.90;;;;;;4942336;28;19953;-76
2022/01/09 14:12:42;;;;;;;;;;;6.10;99.90;;;;;;4942162;28;19926;-76
2022/01/09 14:15:12;;;;;;;;;;;6.00;99.90;;;;;;4942198;28;20378;-76
2022/01/09 14:17:42;;;;;;;;;;;6.00;99.90;;;;;;4942456;28;19929;-77
2022/01/09 14:20:28;;;;;;;;;;;6.10;99.90;;;;;;4941929;28;19969;-76
2022/01/09 14:22:55;;;;;;;;;;;6.10;99.90;;;;;;4941432;28;20418;-76
2022/01/09 14:25:20;;;;;;;;;;;6.20;99.90;;;;;;4941846;28;20372;-77
2022/01/09 14:27:47;;;;;;;;;;;6.20;99.90;;;;;;4942146;28;19984;-74
2022/01/09 14:30:20;;;;;;;;;;;6.30;99.90;;;;;;4938043;28;19938;-75
2022/01/09 14:32:47;;;;;;;;;;;6.40;99.90;;;;;;4952492;29;20303;-74